sensor_id;sensor_type;location;lat;lon;timestamp;P1;durP1;ratioP1;P2;durP2;ratioP2
80961;SDS011;70424;55.154;14.722;2023-07-13T00:00:17;6.22;;;2.70;;
80961;SDS011;70424;55.154;14.722;2023-07-13T00:02:43;8.55;;;2.75;;
80961;SDS011;70424;55.154;14.722;2023-07-13T00:05:08;7.03;;;3.00;;
80961;SDS011;70424;55.154;14.722;2023-07-13T00:07:34;5.75;;;2.40;;
80961;SDS011;70424;55.154;14.722;2023-07-13T00:10:00;6.00;;;2.78;;
80961;SDS011;70424;55.154;14.722;2023-07-13T00:12:27;6.75;;;2.72;;
80961;SDS011;70424;55.154;14.722;2023-07-13T00:14:56;5.82;;;2.85;;
80961;SDS011;70424;55.154;14.722;2023-07-13T00:19:48;4.75;;;2.70;;
80961;SDS011;70424;55.154;14.722;2023-07-13T00:22:13;5.60;;;2.70;;
80961;SDS011;70424;55.154;14.722;2023-07-13T00:24:38;6.22;;;2.78;;
80961;SDS011;70424;55.154;14.722;2023-07-13T00:27:07;6.85;;;2.55;;
80961;SDS011;70424;55.154;14.722;2023-07-13T00:29:34;6.63;;;2.40;;
80961;SDS011;70424;55.154;14.722;2023-07-13T00:32:00;6.43;;;2.30;;
80961;SDS011;70424;55.154;14.722;2023-07-13T00:34:25;6.32;;;2.47;;
80961;SDS011;70424;55.154;14.722;2023-07-13T00:36:51;5.20;;;2.60;;
80961;SDS011;70424;55.154;14.722;2023-07-13T00:39:16;4.82;;;2.13;;
80961;SDS011;70424;55.154;14.722;2023-07-13T00:41:42;6.50;;;2.33;;
80961;SDS011;70424;55.154;14.722;2023-07-13T00:44:17;6.75;;;2.28;;
80961;SDS011;70424;55.154;14.722;2023-07-13T00:46:44;5.05;;;2.03;;
80961;SDS011;70424;55.154;14.722;2023-07-13T00:49:11;6.47;;;2.38;;
80961;SDS011;70424;55.154;14.722;2023-07-13T00:51:41;5.25;;;2.00;;
80961;SDS011;70424;55.154;14.722;2023-07-13T00:54:11;5.88;;;2.20;;
80961;SDS011;70424;55.154;14.722;2023-07-13T00:56:40;7.30;;;2.47;;
80961;SDS011;70424;55.154;14.722;2023-07-13T01:01:33;6.07;;;2.20;;
80961;SDS011;70424;55.154;14.722;2023-07-13T01:03:59;5.68;;;2.20;;
80961;SDS011;70424;55.154;14.722;2023-07-13T01:06:24;4.68;;;2.00;;
80961;SDS011;70424;55.154;14.722;2023-07-13T01:08:50;4.90;;;2.30;;
80961;SDS011;70424;55.154;14.722;2023-07-13T01:11:20;6.35;;;2.15;;
80961;SDS011;70424;55.154;14.722;2023-07-13T01:13:47;4.75;;;2.50;;
80961;SDS011;70424;55.154;14.722;2023-07-13T01:16:17;5.40;;;2.10;;
80961;SDS011;70424;55.154;14.722;2023-07-13T01:18:47;4.35;;;2.30;;
80961;SDS011;70424;55.154;14.722;2023-07-13T01:21:12;7.05;;;2.50;;
80961;SDS011;70424;55.154;14.722;2023-07-13T01:23:37;9.75;;;2.70;;
80961;SDS011;70424;55.154;14.722;2023-07-13T01:26:03;4.63;;;2.10;;
80961;SDS011;70424;55.154;14.722;2023-07-13T01:28:28;7.70;;;2.22;;
80961;SDS011;70424;55.154;14.722;2023-07-13T01:30:55;5.60;;;2.10;;
80961;SDS011;70424;55.154;14.722;2023-07-13T01:33:23;7.07;;;2.30;;
80961;SDS011;70424;55.154;14.722;2023-07-13T01:35:48;5.55;;;2.28;;
80961;SDS011;70424;55.154;14.722;2023-07-13T01:38:15;4.75;;;2.10;;
80961;SDS011;70424;55.154;14.722;2023-07-13T01:40:44;6.55;;;2.78;;
80961;SDS011;70424;55.154;14.722;2023-07-13T01:43:10;4.03;;;1.88;;
80961;SDS011;70424;55.154;14.722;2023-07-13T01:45:35;9.38;;;3.00;;
80961;SDS011;70424;55.154;14.722;2023-07-13T01:48:00;6.78;;;2.42;;
80961;SDS011;70424;55.154;14.722;2023-07-13T01:50:26;7.57;;;2.20;;
80961;SDS011;70424;55.154;14.722;2023-07-13T01:52:52;5.90;;;2.10;;
80961;SDS011;70424;55.154;14.722;2023-07-13T01:55:18;5.97;;;2.00;;
80961;SDS011;70424;55.154;14.722;2023-07-13T01:57:44;7.40;;;2.38;;
80961;SDS011;70424;55.154;14.722;2023-07-13T02:00:09;5.25;;;2.13;;
80961;SDS011;70424;55.154;14.722;2023-07-13T02:02:36;4.72;;;2.13;;
80961;SDS011;70424;55.154;14.722;2023-07-13T02:05:01;6.25;;;2.28;;
80961;SDS011;70424;55.154;14.722;2023-07-13T02:07:27;7.63;;;2.50;;
80961;SDS011;70424;55.154;14.722;2023-07-13T02:09:52;5.10;;;2.00;;
80961;SDS011;70424;55.154;14.722;2023-07-13T02:12:17;4.25;;;2.65;;
80961;SDS011;70424;55.154;14.722;2023-07-13T02:14:43;6.43;;;2.35;;
80961;SDS011;70424;55.154;14.722;2023-07-13T02:17:09;5.75;;;2.33;;
80961;SDS011;70424;55.154;14.722;2023-07-13T02:19:35;4.05;;;2.13;;
80961;SDS011;70424;55.154;14.722;2023-07-13T02:22:01;6.95;;;2.15;;
80961;SDS011;70424;55.154;14.722;2023-07-13T02:24:26;7.10;;;2.40;;
80961;SDS011;70424;55.154;14.722;2023-07-13T02:26:52;8.23;;;2.33;;
80961;SDS011;70424;55.154;14.722;2023-07-13T02:29:18;4.15;;;2.50;;
80961;SDS011;70424;55.154;14.722;2023-07-13T02:31:43;5.80;;;2.40;;
80961;SDS011;70424;55.154;14.722;2023-07-13T02:34:08;5.90;;;2.40;;
80961;SDS011;70424;55.154;14.722;2023-07-13T02:36:34;5.38;;;2.05;;
80961;SDS011;70424;55.154;14.722;2023-07-13T02:39:00;6.30;;;2.10;;
80961;SDS011;70424;55.154;14.722;2023-07-13T02:41:27;8.07;;;2.25;;
80961;SDS011;70424;55.154;14.722;2023-07-13T02:43:53;5.95;;;2.28;;
80961;SDS011;70424;55.154;14.722;2023-07-13T02:46:19;5.47;;;2.20;;
80961;SDS011;70424;55.154;14.722;2023-07-13T02:48:44;6.07;;;2.30;;
80961;SDS011;70424;55.154;14.722;2023-07-13T02:51:10;6.03;;;2.10;;
80961;SDS011;70424;55.154;14.722;2023-07-13T02:53:36;3.85;;;2.10;;
80961;SDS011;70424;55.154;14.722;2023-07-13T02:56:02;4.38;;;1.98;;
80961;SDS011;70424;55.154;14.722;2023-07-13T02:58:27;6.28;;;2.17;;
80961;SDS011;70424;55.154;14.722;2023-07-13T03:00:53;7.00;;;2.33;;
80961;SDS011;70424;55.154;14.722;2023-07-13T03:03:19;6.85;;;2.42;;
80961;SDS011;70424;55.154;14.722;2023-07-13T03:05:45;8.75;;;2.20;;
80961;SDS011;70424;55.154;14.722;2023-07-13T03:08:14;5.10;;;2.10;;
80961;SDS011;70424;55.154;14.722;2023-07-13T03:10:40;7.00;;;2.67;;
80961;SDS011;70424;55.154;14.722;2023-07-13T03:13:06;6.15;;;2.13;;
80961;SDS011;70424;55.154;14.722;2023-07-13T03:15:31;2.90;;;1.83;;
80961;SDS011;70424;55.154;14.722;2023-07-13T03:17:56;5.68;;;2.30;;
80961;SDS011;70424;55.154;14.722;2023-07-13T03:20:22;6.00;;;2.58;;
80961;SDS011;70424;55.154;14.722;2023-07-13T03:22:47;6.95;;;2.53;;
80961;SDS011;70424;55.154;14.722;2023-07-13T03:25:13;4.80;;;2.00;;
80961;SDS011;70424;55.154;14.722;2023-07-13T03:27:38;7.78;;;2.45;;
80961;SDS011;70424;55.154;14.722;2023-07-13T03:30:04;8.57;;;2.90;;
80961;SDS011;70424;55.154;14.722;2023-07-13T03:32:30;7.85;;;2.20;;
80961;SDS011;70424;55.154;14.722;2023-07-13T03:34:56;6.72;;;2.60;;
80961;SDS011;70424;55.154;14.722;2023-07-13T03:37:21;6.97;;;2.28;;
80961;SDS011;70424;55.154;14.722;2023-07-13T03:39:47;5.43;;;2.30;;
80961;SDS011;70424;55.154;14.722;2023-07-13T03:42:12;6.35;;;2.40;;
80961;SDS011;70424;55.154;14.722;2023-07-13T03:44:39;8.68;;;2.35;;
80961;SDS011;70424;55.154;14.722;2023-07-13T03:47:05;7.03;;;2.40;;
80961;SDS011;70424;55.154;14.722;2023-07-13T03:49:31;5.63;;;2.38;;
80961;SDS011;70424;55.154;14.722;2023-07-13T03:51:56;6.95;;;2.53;;
80961;SDS011;70424;55.154;14.722;2023-07-13T03:54:21;5.38;;;2.38;;
80961;SDS011;70424;55.154;14.722;2023-07-13T03:56:47;6.90;;;2.35;;
80961;SDS011;70424;55.154;14.722;2023-07-13T03:59:13;5.15;;;2.30;;
80961;SDS011;70424;55.154;14.722;2023-07-13T04:01:38;7.05;;;2.28;;
80961;SDS011;70424;55.154;14.722;2023-07-13T04:04:04;5.95;;;2.20;;
80961;SDS011;70424;55.154;14.722;2023-07-13T04:06:30;6.55;;;2.50;;
80961;SDS011;70424;55.154;14.722;2023-07-13T04:08:56;5.53;;;2.20;;
80961;SDS011;70424;55.154;14.722;2023-07-13T04:11:25;5.20;;;2.33;;
80961;SDS011;70424;55.154;14.722;2023-07-13T04:13:53;6.00;;;2.63;;
80961;SDS011;70424;55.154;14.722;2023-07-13T04:16:19;6.82;;;2.50;;
80961;SDS011;70424;55.154;14.722;2023-07-13T04:18:45;7.13;;;2.50;;
80961;SDS011;70424;55.154;14.722;2023-07-13T04:21:11;5.95;;;2.30;;
80961;SDS011;70424;55.154;14.722;2023-07-13T04:23:38;5.90;;;2.40;;
80961;SDS011;70424;55.154;14.722;2023-07-13T04:26:04;4.88;;;2.17;;
80961;SDS011;70424;55.154;14.722;2023-07-13T04:28:29;7.18;;;2.58;;
80961;SDS011;70424;55.154;14.722;2023-07-13T04:30:55;6.65;;;2.22;;
80961;SDS011;70424;55.154;14.722;2023-07-13T04:33:21;7.85;;;2.55;;
80961;SDS011;70424;55.154;14.722;2023-07-13T04:35:47;5.95;;;2.20;;
80961;SDS011;70424;55.154;14.722;2023-07-13T04:38:21;8.77;;;3.03;;
80961;SDS011;70424;55.154;14.722;2023-07-13T04:40:47;6.07;;;2.35;;
80961;SDS011;70424;55.154;14.722;2023-07-13T04:43:13;6.97;;;2.58;;
80961;SDS011;70424;55.154;14.722;2023-07-13T04:45:38;5.22;;;2.40;;
80961;SDS011;70424;55.154;14.722;2023-07-13T04:48:04;7.75;;;2.35;;
80961;SDS011;70424;55.154;14.722;2023-07-13T04:50:29;5.57;;;2.33;;
80961;SDS011;70424;55.154;14.722;2023-07-13T04:52:55;6.00;;;2.50;;
80961;SDS011;70424;55.154;14.722;2023-07-13T04:55:20;5.47;;;1.98;;
80961;SDS011;70424;55.154;14.722;2023-07-13T04:57:46;5.72;;;2.40;;
80961;SDS011;70424;55.154;14.722;2023-07-13T05:00:12;6.80;;;2.55;;
80961;SDS011;70424;55.154;14.722;2023-07-13T05:02:40;7.28;;;2.47;;
80961;SDS011;70424;55.154;14.722;2023-07-13T05:05:09;6.00;;;2.22;;
80961;SDS011;70424;55.154;14.722;2023-07-13T05:07:34;4.00;;;1.98;;
80961;SDS011;70424;55.154;14.722;2023-07-13T05:09:59;6.88;;;2.35;;
80961;SDS011;70424;55.154;14.722;2023-07-13T05:12:25;7.95;;;2.40;;
80961;SDS011;70424;55.154;14.722;2023-07-13T05:14:51;10.95;;;3.40;;
80961;SDS011;70424;55.154;14.722;2023-07-13T05:17:17;6.20;;;2.20;;
80961;SDS011;70424;55.154;14.722;2023-07-13T05:19:42;4.63;;;2.20;;
80961;SDS011;70424;55.154;14.722;2023-07-13T05:22:08;8.60;;;2.60;;
80961;SDS011;70424;55.154;14.722;2023-07-13T05:24:33;6.30;;;2.10;;
80961;SDS011;70424;55.154;14.722;2023-07-13T05:26:59;5.80;;;2.15;;
80961;SDS011;70424;55.154;14.722;2023-07-13T05:29:24;7.90;;;2.55;;
80961;SDS011;70424;55.154;14.722;2023-07-13T05:31:50;4.57;;;2.13;;
80961;SDS011;70424;55.154;14.722;2023-07-13T05:34:15;7.07;;;2.35;;
80961;SDS011;70424;55.154;14.722;2023-07-13T05:36:41;4.70;;;2.10;;
80961;SDS011;70424;55.154;14.722;2023-07-13T05:39:06;6.47;;;2.17;;
80961;SDS011;70424;55.154;14.722;2023-07-13T05:41:31;6.38;;;2.28;;
80961;SDS011;70424;55.154;14.722;2023-07-13T05:43:57;7.60;;;2.50;;
80961;SDS011;70424;55.154;14.722;2023-07-13T05:46:22;5.35;;;2.58;;
80961;SDS011;70424;55.154;14.722;2023-07-13T05:48:48;5.60;;;1.83;;
80961;SDS011;70424;55.154;14.722;2023-07-13T05:51:13;5.00;;;2.20;;
80961;SDS011;70424;55.154;14.722;2023-07-13T05:53:39;6.07;;;1.85;;
80961;SDS011;70424;55.154;14.722;2023-07-13T05:56:04;4.32;;;2.00;;
80961;SDS011;70424;55.154;14.722;2023-07-13T05:58:30;5.63;;;2.10;;
80961;SDS011;70424;55.154;14.722;2023-07-13T06:00:59;5.40;;;2.03;;
80961;SDS011;70424;55.154;14.722;2023-07-13T06:03:29;6.15;;;1.92;;
80961;SDS011;70424;55.154;14.722;2023-07-13T06:05:54;5.82;;;2.10;;
80961;SDS011;70424;55.154;14.722;2023-07-13T06:08:20;5.88;;;1.77;;
80961;SDS011;70424;55.154;14.722;2023-07-13T06:10:45;6.45;;;1.80;;
80961;SDS011;70424;55.154;14.722;2023-07-13T06:13:10;7.18;;;2.33;;
80961;SDS011;70424;55.154;14.722;2023-07-13T06:15:36;5.15;;;1.67;;
80961;SDS011;70424;55.154;14.722;2023-07-13T06:18:01;5.45;;;2.00;;
80961;SDS011;70424;55.154;14.722;2023-07-13T06:20:26;6.72;;;1.67;;
80961;SDS011;70424;55.154;14.722;2023-07-13T06:22:52;3.70;;;1.58;;
80961;SDS011;70424;55.154;14.722;2023-07-13T06:25:17;5.90;;;1.70;;
80961;SDS011;70424;55.154;14.722;2023-07-13T06:27:43;5.47;;;1.85;;
80961;SDS011;70424;55.154;14.722;2023-07-13T06:30:08;3.50;;;1.60;;
80961;SDS011;70424;55.154;14.722;2023-07-13T06:32:34;5.85;;;1.60;;
80961;SDS011;70424;55.154;14.722;2023-07-13T06:35:00;3.90;;;1.80;;
80961;SDS011;70424;55.154;14.722;2023-07-13T06:37:25;2.72;;;1.73;;
80961;SDS011;70424;55.154;14.722;2023-07-13T06:39:51;5.00;;;1.90;;
80961;SDS011;70424;55.154;14.722;2023-07-13T06:42:16;6.07;;;2.08;;
80961;SDS011;70424;55.154;14.722;2023-07-13T06:44:42;4.88;;;1.60;;
80961;SDS011;70424;55.154;14.722;2023-07-13T06:47:08;4.57;;;1.52;;
80961;SDS011;70424;55.154;14.722;2023-07-13T06:49:33;4.15;;;1.73;;
80961;SDS011;70424;55.154;14.722;2023-07-13T06:51:58;3.40;;;1.40;;
80961;SDS011;70424;55.154;14.722;2023-07-13T06:54:23;4.30;;;1.65;;
80961;SDS011;70424;55.154;14.722;2023-07-13T06:56:49;4.68;;;1.85;;
80961;SDS011;70424;55.154;14.722;2023-07-13T06:59:14;6.70;;;2.05;;
80961;SDS011;70424;55.154;14.722;2023-07-13T07:01:40;5.93;;;1.90;;
80961;SDS011;70424;55.154;14.722;2023-07-13T07:04:05;5.85;;;2.08;;
80961;SDS011;70424;55.154;14.722;2023-07-13T07:06:30;5.82;;;1.92;;
80961;SDS011;70424;55.154;14.722;2023-07-13T07:08:56;4.82;;;1.88;;
80961;SDS011;70424;55.154;14.722;2023-07-13T07:11:23;4.80;;;1.67;;
80961;SDS011;70424;55.154;14.722;2023-07-13T07:13:50;5.18;;;1.70;;
80961;SDS011;70424;55.154;14.722;2023-07-13T07:16:17;6.07;;;1.45;;
80961;SDS011;70424;55.154;14.722;2023-07-13T07:18:42;7.05;;;2.25;;
80961;SDS011;70424;55.154;14.722;2023-07-13T07:21:08;6.32;;;1.63;;
80961;SDS011;70424;55.154;14.722;2023-07-13T07:23:34;5.38;;;1.80;;
80961;SDS011;70424;55.154;14.722;2023-07-13T07:25:59;5.55;;;2.05;;
80961;SDS011;70424;55.154;14.722;2023-07-13T07:28:24;6.00;;;1.77;;
80961;SDS011;70424;55.154;14.722;2023-07-13T07:30:52;5.43;;;1.80;;
80961;SDS011;70424;55.154;14.722;2023-07-13T07:33:18;5.97;;;1.92;;
80961;SDS011;70424;55.154;14.722;2023-07-13T07:35:47;6.32;;;2.10;;
80961;SDS011;70424;55.154;14.722;2023-07-13T07:38:12;7.35;;;2.00;;
80961;SDS011;70424;55.154;14.722;2023-07-13T07:40:38;5.90;;;2.22;;
80961;SDS011;70424;55.154;14.722;2023-07-13T07:43:05;4.38;;;1.80;;
80961;SDS011;70424;55.154;14.722;2023-07-13T07:45:31;4.60;;;1.73;;
80961;SDS011;70424;55.154;14.722;2023-07-13T07:47:56;3.83;;;2.00;;
80961;SDS011;70424;55.154;14.722;2023-07-13T07:50:24;4.63;;;2.00;;
80961;SDS011;70424;55.154;14.722;2023-07-13T07:52:50;4.13;;;1.42;;
80961;SDS011;70424;55.154;14.722;2023-07-13T07:55:15;3.85;;;1.52;;
80961;SDS011;70424;55.154;14.722;2023-07-13T07:57:41;4.30;;;1.45;;
80961;SDS011;70424;55.154;14.722;2023-07-13T08:00:06;4.72;;;1.90;;
80961;SDS011;70424;55.154;14.722;2023-07-13T08:02:32;4.40;;;1.77;;
80961;SDS011;70424;55.154;14.722;2023-07-13T08:04:57;3.95;;;1.70;;
80961;SDS011;70424;55.154;14.722;2023-07-13T08:07:23;4.97;;;1.85;;
80961;SDS011;70424;55.154;14.722;2023-07-13T08:09:48;3.45;;;1.77;;
80961;SDS011;70424;55.154;14.722;2023-07-13T08:12:17;5.15;;;2.05;;
80961;SDS011;70424;55.154;14.722;2023-07-13T08:14:42;4.97;;;1.63;;
80961;SDS011;70424;55.154;14.722;2023-07-13T08:17:08;4.32;;;1.90;;
80961;SDS011;70424;55.154;14.722;2023-07-13T08:19:33;5.38;;;1.80;;
80961;SDS011;70424;55.154;14.722;2023-07-13T08:21:59;2.22;;;1.05;;
80961;SDS011;70424;55.154;14.722;2023-07-13T08:24:24;2.95;;;1.42;;
80961;SDS011;70424;55.154;14.722;2023-07-13T08:26:50;3.25;;;1.40;;
80961;SDS011;70424;55.154;14.722;2023-07-13T08:29:16;5.40;;;1.52;;
80961;SDS011;70424;55.154;14.722;2023-07-13T08:31:41;5.65;;;1.98;;
80961;SDS011;70424;55.154;14.722;2023-07-13T08:34:07;3.33;;;1.40;;
80961;SDS011;70424;55.154;14.722;2023-07-13T08:36:32;3.47;;;1.58;;
80961;SDS011;70424;55.154;14.722;2023-07-13T08:38:58;4.05;;;1.40;;
80961;SDS011;70424;55.154;14.722;2023-07-13T08:41:23;4.63;;;1.67;;
80961;SDS011;70424;55.154;14.722;2023-07-13T08:43:50;4.32;;;1.80;;
80961;SDS011;70424;55.154;14.722;2023-07-13T08:48:52;2.38;;;1.38;;
80961;SDS011;70424;55.154;14.722;2023-07-13T08:54:05;4.10;;;1.33;;
80961;SDS011;70424;55.154;14.722;2023-07-13T08:56:37;2.85;;;1.15;;
80961;SDS011;70424;55.154;14.722;2023-07-13T08:59:05;4.40;;;1.63;;
80961;SDS011;70424;55.154;14.722;2023-07-13T09:01:49;4.35;;;1.55;;
80961;SDS011;70424;55.154;14.722;2023-07-13T09:04:22;5.03;;;1.73;;
80961;SDS011;70424;55.154;14.722;2023-07-13T09:12:15;4.85;;;1.60;;
80961;SDS011;70424;55.154;14.722;2023-07-13T09:14:48;4.15;;;1.65;;
80961;SDS011;70424;55.154;14.722;2023-07-13T09:17:18;3.67;;;1.63;;
80961;SDS011;70424;55.154;14.722;2023-07-13T09:19:56;3.95;;;1.55;;
80961;SDS011;70424;55.154;14.722;2023-07-13T09:22:29;3.85;;;1.30;;
80961;SDS011;70424;55.154;14.722;2023-07-13T09:25:04;2.70;;;1.40;;
80961;SDS011;70424;55.154;14.722;2023-07-13T09:27:49;4.22;;;1.40;;
80961;SDS011;70424;55.154;14.722;2023-07-13T09:30:24;2.65;;;1.00;;
80961;SDS011;70424;55.154;14.722;2023-07-13T09:33:03;3.47;;;1.65;;
80961;SDS011;70424;55.154;14.722;2023-07-13T09:35:29;4.22;;;1.55;;
80961;SDS011;70424;55.154;14.722;2023-07-13T09:37:58;2.53;;;0.93;;
80961;SDS011;70424;55.154;14.722;2023-07-13T09:40:30;3.88;;;1.48;;
80961;SDS011;70424;55.154;14.722;2023-07-13T09:43:05;2.45;;;1.17;;
80961;SDS011;70424;55.154;14.722;2023-07-13T09:45:35;5.63;;;1.92;;
80961;SDS011;70424;55.154;14.722;2023-07-13T09:48:11;3.53;;;1.35;;
80961;SDS011;70424;55.154;14.722;2023-07-13T09:50:38;2.97;;;1.20;;
80961;SDS011;70424;55.154;14.722;2023-07-13T09:53:04;3.08;;;1.27;;
80961;SDS011;70424;55.154;14.722;2023-07-13T09:55:40;3.20;;;1.38;;
80961;SDS011;70424;55.154;14.722;2023-07-13T09:58:13;4.40;;;1.42;;
80961;SDS011;70424;55.154;14.722;2023-07-13T10:00:42;3.10;;;1.50;;
80961;SDS011;70424;55.154;14.722;2023-07-13T10:03:19;5.03;;;1.55;;
80961;SDS011;70424;55.154;14.722;2023-07-13T10:05:47;4.80;;;1.50;;
80961;SDS011;70424;55.154;14.722;2023-07-13T10:08:19;3.50;;;1.60;;
80961;SDS011;70424;55.154;14.722;2023-07-13T10:11:16;5.18;;;1.60;;
80961;SDS011;70424;55.154;14.722;2023-07-13T10:13:51;4.03;;;1.60;;
80961;SDS011;70424;55.154;14.722;2023-07-13T10:16:20;5.80;;;1.92;;
80961;SDS011;70424;55.154;14.722;2023-07-13T10:18:55;4.88;;;1.63;;
80961;SDS011;70424;55.154;14.722;2023-07-13T10:21:23;4.13;;;1.52;;
80961;SDS011;70424;55.154;14.722;2023-07-13T10:26:42;3.33;;;1.65;;
80961;SDS011;70424;55.154;14.722;2023-07-13T10:29:13;3.92;;;1.70;;
80961;SDS011;70424;55.154;14.722;2023-07-13T10:31:40;4.05;;;1.55;;
80961;SDS011;70424;55.154;14.722;2023-07-13T10:34:09;3.67;;;1.27;;
80961;SDS011;70424;55.154;14.722;2023-07-13T10:36:39;4.97;;;1.55;;
80961;SDS011;70424;55.154;14.722;2023-07-13T10:39:10;4.57;;;1.50;;
80961;SDS011;70424;55.154;14.722;2023-07-13T10:41:41;4.30;;;1.88;;
80961;SDS011;70424;55.154;14.722;2023-07-13T10:44:12;5.47;;;1.90;;
80961;SDS011;70424;55.154;14.722;2023-07-13T10:46:45;2.40;;;1.40;;
80961;SDS011;70424;55.154;14.722;2023-07-13T10:49:11;5.03;;;1.85;;
80961;SDS011;70424;55.154;14.722;2023-07-13T10:51:36;4.10;;;1.52;;
80961;SDS011;70424;55.154;14.722;2023-07-13T10:56:43;2.58;;;1.35;;
80961;SDS011;70424;55.154;14.722;2023-07-13T10:59:17;4.17;;;1.73;;
80961;SDS011;70424;55.154;14.722;2023-07-13T11:01:57;3.95;;;1.38;;
80961;SDS011;70424;55.154;14.722;2023-07-13T11:04:40;3.95;;;1.50;;
80961;SDS011;70424;55.154;14.722;2023-07-13T11:07:18;4.35;;;1.80;;
80961;SDS011;70424;55.154;14.722;2023-07-13T11:09:48;3.35;;;1.60;;
80961;SDS011;70424;55.154;14.722;2023-07-13T11:20:24;3.30;;;1.60;;
80961;SDS011;70424;55.154;14.722;2023-07-13T11:25:38;2.63;;;1.63;;
80961;SDS011;70424;55.154;14.722;2023-07-13T11:36:10;3.58;;;1.75;;
80961;SDS011;70424;55.154;14.722;2023-07-13T11:38:39;4.72;;;1.67;;
80961;SDS011;70424;55.154;14.722;2023-07-13T11:41:17;2.53;;;1.38;;
80961;SDS011;70424;55.154;14.722;2023-07-13T11:43:45;2.63;;;1.65;;
80961;SDS011;70424;55.154;14.722;2023-07-13T11:46:22;2.65;;;1.55;;
80961;SDS011;70424;55.154;14.722;2023-07-13T11:48:50;3.83;;;1.38;;
80961;SDS011;70424;55.154;14.722;2023-07-13T11:51:26;4.07;;;1.83;;
80961;SDS011;70424;55.154;14.722;2023-07-13T11:53:55;4.65;;;1.58;;
80961;SDS011;70424;55.154;14.722;2023-07-13T11:56:22;5.47;;;1.88;;
80961;SDS011;70424;55.154;14.722;2023-07-13T11:58:51;4.32;;;1.70;;
80961;SDS011;70424;55.154;14.722;2023-07-13T12:01:20;3.90;;;1.70;;
80961;SDS011;70424;55.154;14.722;2023-07-13T12:03:47;5.35;;;1.70;;
80961;SDS011;70424;55.154;14.722;2023-07-13T12:06:35;2.83;;;1.50;;
80961;SDS011;70424;55.154;14.722;2023-07-13T12:09:12;3.58;;;1.60;;
80961;SDS011;70424;55.154;14.722;2023-07-13T12:11:41;2.90;;;1.38;;
80961;SDS011;70424;55.154;14.722;2023-07-13T12:14:17;2.42;;;1.52;;
80961;SDS011;70424;55.154;14.722;2023-07-13T12:16:44;3.05;;;1.70;;
80961;SDS011;70424;55.154;14.722;2023-07-13T12:19:18;1.95;;;1.20;;
80961;SDS011;70424;55.154;14.722;2023-07-13T12:21:46;2.30;;;1.38;;
80961;SDS011;70424;55.154;14.722;2023-07-13T12:24:17;4.47;;;1.75;;
80961;SDS011;70424;55.154;14.722;2023-07-13T12:26:44;4.25;;;1.85;;
80961;SDS011;70424;55.154;14.722;2023-07-13T12:29:16;4.53;;;1.77;;
80961;SDS011;70424;55.154;14.722;2023-07-13T12:31:43;4.68;;;1.70;;
80961;SDS011;70424;55.154;14.722;2023-07-13T12:34:16;5.07;;;1.75;;
80961;SDS011;70424;55.154;14.722;2023-07-13T12:39:14;4.63;;;1.90;;
80961;SDS011;70424;55.154;14.722;2023-07-13T12:41:40;4.50;;;1.83;;
80961;SDS011;70424;55.154;14.722;2023-07-13T12:44:12;3.08;;;1.65;;
80961;SDS011;70424;55.154;14.722;2023-07-13T12:46:50;2.03;;;1.50;;
80961;SDS011;70424;55.154;14.722;2023-07-13T12:49:18;2.70;;;1.55;;
80961;SDS011;70424;55.154;14.722;2023-07-13T12:52:10;3.67;;;1.92;;
80961;SDS011;70424;55.154;14.722;2023-07-13T12:54:42;3.22;;;1.52;;
80961;SDS011;70424;55.154;14.722;2023-07-13T12:57:27;3.42;;;1.50;;
80961;SDS011;70424;55.154;14.722;2023-07-13T12:59:53;6.93;;;1.70;;
80961;SDS011;70424;55.154;14.722;2023-07-13T13:05:09;1.95;;;1.50;;
80961;SDS011;70424;55.154;14.722;2023-07-13T13:07:39;3.47;;;1.70;;
80961;SDS011;70424;55.154;14.722;2023-07-13T13:10:10;4.10;;;1.60;;
80961;SDS011;70424;55.154;14.722;2023-07-13T13:12:37;3.50;;;1.85;;
80961;SDS011;70424;55.154;14.722;2023-07-13T13:15:02;3.15;;;1.70;;
80961;SDS011;70424;55.154;14.722;2023-07-13T13:17:31;3.50;;;1.58;;
80961;SDS011;70424;55.154;14.722;2023-07-13T13:19:57;3.88;;;1.63;;
80961;SDS011;70424;55.154;14.722;2023-07-13T13:22:23;3.10;;;1.70;;
80961;SDS011;70424;55.154;14.722;2023-07-13T13:24:48;5.40;;;1.73;;
80961;SDS011;70424;55.154;14.722;2023-07-13T13:27:18;2.67;;;1.50;;
80961;SDS011;70424;55.154;14.722;2023-07-13T13:29:46;4.10;;;1.73;;
80961;SDS011;70424;55.154;14.722;2023-07-13T13:32:14;2.58;;;1.42;;
80961;SDS011;70424;55.154;14.722;2023-07-13T13:34:40;6.40;;;1.60;;
80961;SDS011;70424;55.154;14.722;2023-07-13T13:37:20;5.47;;;1.75;;
80961;SDS011;70424;55.154;14.722;2023-07-13T13:39:47;3.53;;;1.73;;
80961;SDS011;70424;55.154;14.722;2023-07-13T13:42:13;4.05;;;1.80;;
80961;SDS011;70424;55.154;14.722;2023-07-13T13:44:38;3.10;;;1.88;;
80961;SDS011;70424;55.154;14.722;2023-07-13T13:49:42;3.75;;;1.85;;
80961;SDS011;70424;55.154;14.722;2023-07-13T13:52:08;4.57;;;1.65;;
80961;SDS011;70424;55.154;14.722;2023-07-13T13:54:35;4.22;;;1.70;;
80961;SDS011;70424;55.154;14.722;2023-07-13T13:57:00;4.57;;;2.00;;
80961;SDS011;70424;55.154;14.722;2023-07-13T13:59:26;4.45;;;1.77;;
80961;SDS011;70424;55.154;14.722;2023-07-13T14:01:51;3.63;;;1.50;;
80961;SDS011;70424;55.154;14.722;2023-07-13T14:04:18;4.70;;;2.05;;
80961;SDS011;70424;55.154;14.722;2023-07-13T14:06:45;4.40;;;1.70;;
80961;SDS011;70424;55.154;14.722;2023-07-13T14:09:12;4.68;;;1.80;;
80961;SDS011;70424;55.154;14.722;2023-07-13T14:11:40;7.05;;;1.98;;
80961;SDS011;70424;55.154;14.722;2023-07-13T14:14:08;5.72;;;2.00;;
80961;SDS011;70424;55.154;14.722;2023-07-13T14:16:55;4.72;;;2.00;;
80961;SDS011;70424;55.154;14.722;2023-07-13T14:19:21;6.63;;;2.25;;
80961;SDS011;70424;55.154;14.722;2023-07-13T14:21:47;3.97;;;1.65;;
80961;SDS011;70424;55.154;14.722;2023-07-13T14:24:14;3.97;;;1.75;;
80961;SDS011;70424;55.154;14.722;2023-07-13T14:26:39;5.80;;;1.80;;
80961;SDS011;70424;55.154;14.722;2023-07-13T14:29:13;3.55;;;1.60;;
80961;SDS011;70424;55.154;14.722;2023-07-13T14:31:43;5.47;;;2.30;;
80961;SDS011;70424;55.154;14.722;2023-07-13T14:34:10;5.35;;;1.80;;
80961;SDS011;70424;55.154;14.722;2023-07-13T14:36:37;4.57;;;1.88;;
80961;SDS011;70424;55.154;14.722;2023-07-13T14:39:13;5.05;;;2.10;;
80961;SDS011;70424;55.154;14.722;2023-07-13T14:41:41;4.13;;;2.00;;
80961;SDS011;70424;55.154;14.722;2023-07-13T14:44:10;5.80;;;2.13;;
80961;SDS011;70424;55.154;14.722;2023-07-13T14:46:39;5.45;;;1.90;;
80961;SDS011;70424;55.154;14.722;2023-07-13T14:49:14;5.45;;;2.30;;
80961;SDS011;70424;55.154;14.722;2023-07-13T14:51:48;5.18;;;1.83;;
80961;SDS011;70424;55.154;14.722;2023-07-13T14:54:14;5.70;;;1.88;;
80961;SDS011;70424;55.154;14.722;2023-07-13T14:56:39;6.70;;;2.10;;
80961;SDS011;70424;55.154;14.722;2023-07-13T14:59:04;4.40;;;1.85;;
80961;SDS011;70424;55.154;14.722;2023-07-13T15:01:30;4.35;;;1.85;;
80961;SDS011;70424;55.154;14.722;2023-07-13T15:03:56;6.30;;;2.28;;
80961;SDS011;70424;55.154;14.722;2023-07-13T15:06:23;5.80;;;2.08;;
80961;SDS011;70424;55.154;14.722;2023-07-13T15:08:48;5.10;;;1.88;;
80961;SDS011;70424;55.154;14.722;2023-07-13T15:11:14;4.40;;;1.85;;
80961;SDS011;70424;55.154;14.722;2023-07-13T15:13:40;5.32;;;2.33;;
80961;SDS011;70424;55.154;14.722;2023-07-13T15:16:14;6.35;;;2.38;;
80961;SDS011;70424;55.154;14.722;2023-07-13T15:18:43;6.53;;;2.20;;
80961;SDS011;70424;55.154;14.722;2023-07-13T15:21:10;6.68;;;2.38;;
80961;SDS011;70424;55.154;14.722;2023-07-13T15:23:39;4.93;;;2.17;;